地図

経路データ

SID SEASON NUMBER BASIN SUBBASIN NAME ISO_TIME NATURE LAT LON WMO_WIND WMO_PRES WMO_AGENCY TRACK_TYPE DIST2LAND LANDFALL IFLAG USA_AGENCY USA_ATCF_ID USA_LAT USA_LON USA_RECORD USA_STATUS USA_WIND USA_PRES USA_SSHS USA_R34_NE USA_R34_SE USA_R34_SW USA_R34_NW USA_R50_NE USA_R50_SE USA_R50_SW USA_R50_NW USA_R64_NE USA_R64_SE USA_R64_SW USA_R64_NW USA_POCI USA_ROCI USA_RMW USA_EYE TOKYO_LAT TOKYO_LON TOKYO_GRADE TOKYO_WIND TOKYO_PRES TOKYO_R50_DIR TOKYO_R50_LONG TOKYO_R50_SHORT TOKYO_R30_DIR TOKYO_R30_LONG TOKYO_R30_SHORT TOKYO_LAND CMA_LAT CMA_LON CMA_CAT CMA_WIND CMA_PRES HKO_LAT HKO_LON HKO_CAT HKO_WIND HKO_PRES NEWDELHI_LAT NEWDELHI_LON NEWDELHI_GRADE NEWDELHI_WIND NEWDELHI_PRES NEWDELHI_CI NEWDELHI_DP NEWDELHI_POCI REUNION_LAT REUNION_LON REUNION_TYPE REUNION_WIND REUNION_PRES REUNION_TNUM REUNION_CI REUNION_RMW REUNION_R34_NE REUNION_R34_SE REUNION_R34_SW REUNION_R34_NW REUNION_R50_NE REUNION_R50_SE REUNION_R50_SW REUNION_R50_NW REUNION_R64_NE REUNION_R64_SE REUNION_R64_SW REUNION_R64_NW BOM_LAT BOM_LON BOM_TYPE BOM_WIND BOM_PRES BOM_TNUM BOM_CI BOM_RMW BOM_R34_NE BOM_R34_SE BOM_R34_SW BOM_R34_NW BOM_R50_NE BOM_R50_SE BOM_R50_SW BOM_R50_NW BOM_R64_NE BOM_R64_SE BOM_R64_SW BOM_R64_NW BOM_ROCI BOM_POCI BOM_EYE BOM_POS_METHOD BOM_PRES_METHOD NADI_LAT NADI_LON NADI_CAT NADI_WIND NADI_PRES WELLINGTON_LAT WELLINGTON_LON WELLINGTON_WIND WELLINGTON_PRES DS824_LAT DS824_LON DS824_STAGE DS824_WIND DS824_PRES TD9636_LAT TD9636_LON TD9636_STAGE TD9636_WIND TD9636_PRES TD9635_LAT TD9635_LON TD9635_WIND TD9635_PRES TD9635_ROCI NEUMANN_LAT NEUMANN_LON NEUMANN_CLASS NEUMANN_WIND NEUMANN_PRES MLC_LAT MLC_LON MLC_CLASS MLC_WIND MLC_PRES USA_GUST BOM_GUST BOM_GUST_PER REUNION_GUST REUNION_GUST_PER USA_SEAHGT USA_SEARAD_NE USA_SEARAD_SE USA_SEARAD_SW USA_SEARAD_NW STORM_SPEED STORM_DIR
1891213N20091 1891 17 NI BB NOT_NAMED 1891-08-01 00:00:00 TS 20.3000 91.2000 main 132 132 _________O____ -1 20.3000 91.2000 TC 30 3 296
1891213N20091 1891 17 NI BB NOT_NAMED 1891-08-01 03:00:00 TS 20.3734 91.0367 main 145 145 _________PO___ -1 20.4100 90.9551 TC 30 20.3000 91.2000 1 4 292
1891213N20091 1891 17 NI BB NOT_NAMED 1891-08-01 06:00:00 TS 20.4534 90.7864 main 156 148 _________OP___ -1 20.5000 90.7000 TC 30 20.3834 90.9160 1 5 287
1891213N20091 1891 17 NI BB NOT_NAMED 1891-08-01 09:00:00 TS 20.5171 90.5252 main 148 134 _________PP___ -1 20.5575 90.4350 TC 30 20.4633 90.6455 1 5 284
1891213N20091 1891 17 NI BB NOT_NAMED 1891-08-01 12:00:00 TS 20.5682 90.3011 main 134 134 _________OP___ -1 20.6000 90.2000 TC 30 20.5365 90.4022 1 4 286
1891213N20091 1891 17 NI BB NOT_NAMED 1891-08-01 15:00:00 TS 20.6250 90.1212 main 134 123 _________PO___ -1 20.6499 90.0425 TC 30 20.6000 90.2000 1 3 289
1891213N20091 1891 17 NI BB NOT_NAMED 1891-08-01 18:00:00 TS 20.6763 89.9719 main 123 119 _________OP___ -1 20.7000 89.9000 TC 30 20.6525 90.0438 1 3 289
1891213N20091 1891 17 NI BB NOT_NAMED 1891-08-01 21:00:00 TS 20.7207 89.8197 main 119 102 _________PP___ -1 20.7424 89.7374 TC 30 20.6991 89.9021 1 3 286
1891213N20091 1891 17 NI BB NOT_NAMED 1891-08-02 00:00:00 TS 20.7731 89.6172 main 102 91 _________OP___ -1 20.8000 89.5000 TC 30 20.7461 89.7344 1 5 285
1891213N20091 1891 17 NI BB NOT_NAMED 1891-08-02 03:00:00 TS 20.8500 89.3188 main 80 78 _________PO___ -1 20.9000 89.1376 TC 30 20.8000 89.5000 1 7 284
1891213N20091 1891 17 NI BB NOT_NAMED 1891-08-02 06:00:00 TS 20.9320 88.9255 main 78 67 _________OP___ -1 21.0000 88.7000 TC 30 20.8640 89.1509 1 8 281
1891213N20091 1891 17 NI BB NOT_NAMED 1891-08-02 09:00:00 TS 20.9926 88.4949 main 67 56 _________PP___ -1 21.0499 88.2573 TC 30 20.9353 88.7324 1 8 279
1891213N20091 1891 17 NI BB NOT_NAMED 1891-08-02 12:00:00 TS 21.0570 88.0364 main 59 59 _________OP___ -1 21.1000 87.8000 TC 30 21.0139 88.2727 1 9 280
1891213N20091 1891 17 NI BB NOT_NAMED 1891-08-02 15:00:00 TS 21.1462 87.5750 main 59 30 _________PO___ -1 21.1924 87.3500 TC 30 21.1000 87.8000 1 9 282
1891213N20091 1891 17 NI BB NOT_NAMED 1891-08-02 18:00:00 TS 21.2422 87.1305 main 23 0 _________OP___ -1 21.3000 86.9000 TC 30 21.1843 87.3610 1 9 283
1891213N20091 1891 17 NI BB NOT_NAMED 1891-08-02 21:00:00 TS 21.3347 86.6860 main 0 0 _________PP___ -1 21.3923 86.4573 TC 30 21.2770 86.9146 1 9 283
1891213N20091 1891 17 NI BB NOT_NAMED 1891-08-03 00:00:00 TS 21.4406 86.2304 main 0 0 _________OP___ -1 21.5000 86.0000 TC 30 21.3812 86.4609 1 9 285
1891213N20091 1891 17 NI BB NOT_NAMED 1891-08-03 03:00:00 TS 21.5712 85.7500 main 0 0 _________PO___ -1 21.6425 85.5000 TC 30 21.5000 86.0000 1 9 287
1891213N20091 1891 17 NI BB NOT_NAMED 1891-08-03 06:00:00 TS 21.7096 85.2619 main 0 0 _________OP___ -1 21.8000 85.0000 TC 30 21.6192 85.5237 1 9 287
1891213N20091 1891 17 NI BB NOT_NAMED 1891-08-03 09:00:00 TS 21.8486 84.7921 main 0 0 _________PP___ -1 21.9423 84.5423 TC 30 21.7548 85.0420 1 9 289
1891213N20091 1891 17 NI BB NOT_NAMED 1891-08-03 12:00:00 TS 22.0065 84.3321 main 0 0 _________OP___ -1 22.1000 84.1000 TC 30 21.9130 84.5642 1 9 292
1891213N20091 1891 17 NI BB NOT_NAMED 1891-08-03 15:00:00 TS 22.1887 83.8712 main 0 0 _________PO___ -1 22.2774 83.6423 TC 30 22.1000 84.1000 1 9 296
1891213N20091 1891 17 NI BB NOT_NAMED 1891-08-03 18:00:00 TS 22.3970 83.4606 main 0 0 _________OP___ -1 22.5000 83.2000 TC 30 22.3197 83.6561 1 9 302
1891213N20091 1891 17 NI BB NOT_NAMED 1891-08-03 21:00:00 TS 22.6524 83.0535 main 0 0 _________PP___ -1 22.7826 82.7904 TC 30 22.5656 83.2290 1 9 306
1891213N20091 1891 17 NI BB NOT_NAMED 1891-08-04 00:00:00 TS 22.9192 82.6749 main 0 0 _________OP___ -1 23.1000 82.4000 TC 30 22.8288 82.8123 1 8 307
1891213N20091 1891 17 NI BB NOT_NAMED 1891-08-04 03:00:00 NR 23.1000 82.4000 main 0 __________O___ -1 TC 23.1000 82.4000 1 6 305

IBTrACS Databaseについて

本データベースは、米国NOAAが公開する1842年以降の世界の熱帯低気圧のベストトラックデータアーカイブInternational Best Track Archive for Climate Stewardship (IBTrACS)を、ウェブで閲覧しやすい形式に変換したものです。

最終更新日:2021-10-21